createdAt,value
2022-10-26T12:16:10.148Z,24.55
2022-10-26T12:17:10.206Z,24.81
2022-10-26T12:18:55.005Z,24.55
2022-10-26T12:19:40.743Z,24.78
2022-10-26T12:20:40.726Z,25.28
2022-10-26T12:22:44.639Z,24.98
2022-10-26T12:23:51.519Z,25.28
2022-10-26T12:32:30.918Z,23.98
2022-10-26T12:33:30.892Z,23.79
2022-10-26T13:09:06.229Z,23.57
2022-10-26T13:10:06.206Z,24.15
2022-10-26T13:11:06.190Z,24.55
2022-10-26T13:12:06.181Z,25.02
2022-10-26T13:13:06.162Z,25.18
2022-10-26T13:14:06.139Z,25.06
2022-10-26T13:15:06.122Z,25.24
2022-10-26T13:16:06.122Z,25.15
2022-10-26T13:17:06.104Z,25.33
2022-10-26T13:18:06.102Z,25.52
2022-10-26T13:19:06.078Z,25.80
2022-10-26T13:20:06.054Z,25.58
2022-10-26T13:21:06.040Z,25.61
2022-10-26T13:22:06.030Z,25.54
2022-10-26T13:23:06.027Z,25.42
2022-10-26T13:24:06.048Z,25.30
2022-10-26T13:25:05.999Z,25.43
2022-10-26T13:26:05.988Z,25.33
2022-10-26T13:27:05.966Z,25.25
2022-10-26T13:28:05.968Z,25.30
2022-10-26T13:29:05.935Z,25.42
2022-10-26T13:30:05.925Z,25.67
2022-10-26T13:31:05.910Z,25.67
2022-10-26T13:32:05.896Z,26.05
2022-10-26T13:33:05.907Z,25.73
2022-10-26T13:34:05.921Z,25.52
2022-10-26T13:35:05.861Z,25.36
2022-10-26T13:36:05.857Z,25.20
2022-10-26T13:37:05.848Z,25.10
2022-10-26T13:38:05.842Z,25.09
2022-10-26T13:39:05.818Z,25.14
2022-10-26T13:40:05.824Z,24.83
2022-10-26T13:41:05.808Z,24.83
2022-10-26T13:42:05.795Z,24.83
2022-10-26T13:43:05.806Z,24.95
2022-10-26T13:44:05.769Z,24.91
2022-10-26T13:45:05.756Z,24.55
2022-10-26T13:46:05.742Z,24.34
2022-10-26T13:47:05.737Z,24.27
2022-10-26T13:48:05.735Z,24.47
2022-10-26T13:49:05.730Z,24.65
2022-10-26T13:50:05.686Z,24.71
2022-10-26T13:51:05.673Z,24.90
2022-10-26T13:53:41.119Z,24.80
2022-10-26T13:55:22.393Z,24.93
2022-10-26T13:56:22.382Z,24.96
2022-10-26T13:57:22.389Z,24.90
2022-10-26T13:58:22.363Z,24.98
2022-10-26T13:59:22.375Z,24.88
2022-10-26T14:00:22.330Z,24.81
2022-10-26T14:02:25.913Z,24.18
2022-10-26T14:03:25.885Z,24.15
2022-10-26T14:04:25.865Z,24.12
2022-10-26T14:05:25.860Z,23.78
2022-10-26T14:06:25.837Z,23.72
